sensor_id;sensor_type;location;lat;lon;timestamp;P1;durP1;ratioP1;P2;durP2;ratioP2
49784;SDS011;35679;38.732;-121.358;2022-09-29T00:04:52;2.28;;;2.00;;
49784;SDS011;35679;38.732;-121.358;2022-09-29T00:07:41;2.30;;;2.10;;
49784;SDS011;35679;38.732;-121.358;2022-09-29T00:10:31;2.30;;;2.10;;
49784;SDS011;35679;38.732;-121.358;2022-09-29T00:13:21;2.28;;;2.10;;
49784;SDS011;35679;38.732;-121.358;2022-09-29T00:16:12;2.13;;;2.03;;
49784;SDS011;35679;38.732;-121.358;2022-09-29T00:19:03;2.38;;;2.17;;
49784;SDS011;35679;38.732;-121.358;2022-09-29T00:21:54;2.22;;;2.13;;
49784;SDS011;35679;38.732;-121.358;2022-09-29T00:24:45;1.95;;;1.85;;
49784;SDS011;35679;38.732;-121.358;2022-09-29T00:27:36;2.20;;;2.10;;
49784;SDS011;35679;38.732;-121.358;2022-09-29T00:30:27;2.20;;;2.10;;
49784;SDS011;35679;38.732;-121.358;2022-09-29T00:33:18;2.17;;;2.08;;
49784;SDS011;35679;38.732;-121.358;2022-09-29T00:36:12;2.30;;;2.10;;
49784;SDS011;35679;38.732;-121.358;2022-09-29T00:39:04;2.28;;;2.08;;
49784;SDS011;35679;38.732;-121.358;2022-09-29T00:41:54;2.25;;;2.08;;
49784;SDS011;35679;38.732;-121.358;2022-09-29T00:48:08;2.15;;;2.00;;
49784;SDS011;35679;38.732;-121.358;2022-09-29T00:51:05;2.10;;;2.00;;
49784;SDS011;35679;38.732;-121.358;2022-09-29T00:53:55;2.00;;;1.80;;
49784;SDS011;35679;38.732;-121.358;2022-09-29T00:56:47;2.20;;;2.10;;
49784;SDS011;35679;38.732;-121.358;2022-09-29T00:59:46;1.95;;;1.85;;
49784;SDS011;35679;38.732;-121.358;2022-09-29T01:02:48;2.17;;;2.08;;
49784;SDS011;35679;38.732;-121.358;2022-09-29T01:05:43;2.50;;;1.80;;
49784;SDS011;35679;38.732;-121.358;2022-09-29T01:09:03;2.22;;;2.13;;
49784;SDS011;35679;38.732;-121.358;2022-09-29T01:11:58;2.00;;;1.90;;
49784;SDS011;35679;38.732;-121.358;2022-09-29T01:17:41;2.33;;;1.88;;
49784;SDS011;35679;38.732;-121.358;2022-09-29T01:20:33;1.90;;;1.80;;
49784;SDS011;35679;38.732;-121.358;2022-09-29T01:23:45;1.90;;;1.80;;
49784;SDS011;35679;38.732;-121.358;2022-09-29T01:32:55;2.10;;;2.00;;
49784;SDS011;35679;38.732;-121.358;2022-09-29T01:39:18;2.35;;;2.25;;
49784;SDS011;35679;38.732;-121.358;2022-09-29T01:42:25;2.00;;;1.90;;
49784;SDS011;35679;38.732;-121.358;2022-09-29T01:45:50;2.05;;;1.95;;
49784;SDS011;35679;38.732;-121.358;2022-09-29T01:48:51;2.33;;;2.00;;
49784;SDS011;35679;38.732;-121.358;2022-09-29T01:52:27;2.58;;;2.00;;
49784;SDS011;35679;38.732;-121.358;2022-09-29T01:55:06;1.98;;;1.88;;
49784;SDS011;35679;38.732;-121.358;2022-09-29T01:58:09;2.17;;;1.90;;
49784;SDS011;35679;38.732;-121.358;2022-09-29T02:01:05;2.38;;;2.10;;
49784;SDS011;35679;38.732;-121.358;2022-09-29T02:05:01;1.92;;;1.83;;
49784;SDS011;35679;38.732;-121.358;2022-09-29T02:07:41;1.90;;;1.80;;
49784;SDS011;35679;38.732;-121.358;2022-09-29T02:10:36;2.08;;;1.98;;
49784;SDS011;35679;38.732;-121.358;2022-09-29T02:14:21;1.90;;;1.80;;
49784;SDS011;35679;38.732;-121.358;2022-09-29T02:16:57;2.17;;;2.00;;
49784;SDS011;35679;38.732;-121.358;2022-09-29T02:20:09;2.00;;;1.90;;
49784;SDS011;35679;38.732;-121.358;2022-09-29T02:23:01;1.85;;;1.75;;
49784;SDS011;35679;38.732;-121.358;2022-09-29T02:25:51;1.70;;;1.60;;
49784;SDS011;35679;38.732;-121.358;2022-09-29T02:28:44;2.22;;;2.03;;
49784;SDS011;35679;38.732;-121.358;2022-09-29T02:31:35;2.00;;;1.90;;
49784;SDS011;35679;38.732;-121.358;2022-09-29T02:34:26;1.90;;;1.80;;
49784;SDS011;35679;38.732;-121.358;2022-09-29T02:37:24;1.83;;;1.73;;
49784;SDS011;35679;38.732;-121.358;2022-09-29T02:44:41;1.90;;;1.80;;
49784;SDS011;35679;38.732;-121.358;2022-09-29T02:47:13;1.92;;;1.83;;
49784;SDS011;35679;38.732;-121.358;2022-09-29T02:50:16;2.38;;;1.88;;
49784;SDS011;35679;38.732;-121.358;2022-09-29T02:56:18;1.88;;;1.77;;
49784;SDS011;35679;38.732;-121.358;2022-09-29T03:02:40;1.90;;;1.80;;
49784;SDS011;35679;38.732;-121.358;2022-09-29T03:05:31;1.80;;;1.70;;
49784;SDS011;35679;38.732;-121.358;2022-09-29T03:08:21;2.00;;;1.80;;
49784;SDS011;35679;38.732;-121.358;2022-09-29T03:11:11;1.55;;;1.45;;
49784;SDS011;35679;38.732;-121.358;2022-09-29T03:14:00;1.83;;;1.73;;
49784;SDS011;35679;38.732;-121.358;2022-09-29T03:16:50;1.85;;;1.70;;
49784;SDS011;35679;38.732;-121.358;2022-09-29T03:19:42;1.85;;;1.75;;
49784;SDS011;35679;38.732;-121.358;2022-09-29T03:22:31;1.98;;;1.77;;
49784;SDS011;35679;38.732;-121.358;2022-09-29T03:25:22;1.80;;;1.70;;
49784;SDS011;35679;38.732;-121.358;2022-09-29T03:28:12;1.92;;;1.83;;
49784;SDS011;35679;38.732;-121.358;2022-09-29T03:31:04;1.58;;;1.48;;
49784;SDS011;35679;38.732;-121.358;2022-09-29T03:33:57;1.90;;;1.70;;
49784;SDS011;35679;38.732;-121.358;2022-09-29T03:36:46;1.75;;;1.65;;
49784;SDS011;35679;38.732;-121.358;2022-09-29T03:39:36;1.70;;;1.60;;
49784;SDS011;35679;38.732;-121.358;2022-09-29T03:42:25;1.85;;;1.67;;
49784;SDS011;35679;38.732;-121.358;2022-09-29T03:45:25;1.90;;;1.80;;
49784;SDS011;35679;38.732;-121.358;2022-09-29T03:48:17;1.80;;;1.70;;
49784;SDS011;35679;38.732;-121.358;2022-09-29T03:51:10;1.70;;;1.60;;
49784;SDS011;35679;38.732;-121.358;2022-09-29T03:54:00;1.70;;;1.60;;
49784;SDS011;35679;38.732;-121.358;2022-09-29T03:56:49;1.80;;;1.70;;
49784;SDS011;35679;38.732;-121.358;2022-09-29T03:59:39;1.85;;;1.75;;
49784;SDS011;35679;38.732;-121.358;2022-09-29T04:02:32;1.80;;;1.70;;
49784;SDS011;35679;38.732;-121.358;2022-09-29T04:05:23;4.13;;;2.97;;
49784;SDS011;35679;38.732;-121.358;2022-09-29T04:08:13;1.73;;;1.60;;
49784;SDS011;35679;38.732;-121.358;2022-09-29T04:11:03;1.80;;;1.70;;
49784;SDS011;35679;38.732;-121.358;2022-09-29T04:13:53;1.80;;;1.70;;
49784;SDS011;35679;38.732;-121.358;2022-09-29T04:16:42;1.90;;;1.60;;
49784;SDS011;35679;38.732;-121.358;2022-09-29T04:19:32;1.65;;;1.55;;
49784;SDS011;35679;38.732;-121.358;2022-09-29T04:22:21;2.00;;;1.80;;
49784;SDS011;35679;38.732;-121.358;2022-09-29T04:25:11;1.85;;;1.73;;
49784;SDS011;35679;38.732;-121.358;2022-09-29T04:28:00;1.60;;;1.50;;
49784;SDS011;35679;38.732;-121.358;2022-09-29T04:30:50;1.80;;;1.70;;
49784;SDS011;35679;38.732;-121.358;2022-09-29T04:33:40;1.73;;;1.63;;
49784;SDS011;35679;38.732;-121.358;2022-09-29T04:36:30;1.65;;;1.55;;
49784;SDS011;35679;38.732;-121.358;2022-09-29T04:39:19;1.80;;;1.70;;
49784;SDS011;35679;38.732;-121.358;2022-09-29T04:42:09;1.70;;;1.60;;
49784;SDS011;35679;38.732;-121.358;2022-09-29T04:44:59;2.00;;;1.80;;
49784;SDS011;35679;38.732;-121.358;2022-09-29T04:47:50;2.10;;;1.90;;
49784;SDS011;35679;38.732;-121.358;2022-09-29T04:50:40;1.80;;;1.70;;
49784;SDS011;35679;38.732;-121.358;2022-09-29T04:53:31;1.70;;;1.60;;
49784;SDS011;35679;38.732;-121.358;2022-09-29T04:56:20;1.83;;;1.67;;
49784;SDS011;35679;38.732;-121.358;2022-09-29T04:59:10;1.73;;;1.63;;
49784;SDS011;35679;38.732;-121.358;2022-09-29T05:02:00;1.60;;;1.50;;
49784;SDS011;35679;38.732;-121.358;2022-09-29T05:04:50;1.70;;;1.60;;
49784;SDS011;35679;38.732;-121.358;2022-09-29T05:07:40;1.92;;;1.73;;
49784;SDS011;35679;38.732;-121.358;2022-09-29T05:10:29;1.70;;;1.60;;
49784;SDS011;35679;38.732;-121.358;2022-09-29T05:13:19;1.92;;;1.67;;
49784;SDS011;35679;38.732;-121.358;2022-09-29T05:16:09;1.75;;;1.63;;
49784;SDS011;35679;38.732;-121.358;2022-09-29T05:18:58;1.67;;;1.52;;
49784;SDS011;35679;38.732;-121.358;2022-09-29T05:21:48;1.70;;;1.60;;
49784;SDS011;35679;38.732;-121.358;2022-09-29T05:24:38;1.92;;;1.83;;
49784;SDS011;35679;38.732;-121.358;2022-09-29T05:27:28;1.80;;;1.70;;
49784;SDS011;35679;38.732;-121.358;2022-09-29T05:30:17;1.77;;;1.67;;
49784;SDS011;35679;38.732;-121.358;2022-09-29T05:33:07;1.63;;;1.52;;
49784;SDS011;35679;38.732;-121.358;2022-09-29T05:35:56;1.70;;;1.60;;
49784;SDS011;35679;38.732;-121.358;2022-09-29T05:38:47;1.70;;;1.60;;
49784;SDS011;35679;38.732;-121.358;2022-09-29T05:41:36;1.80;;;1.70;;
49784;SDS011;35679;38.732;-121.358;2022-09-29T05:44:27;1.70;;;1.60;;
49784;SDS011;35679;38.732;-121.358;2022-09-29T05:47:17;1.60;;;1.50;;
49784;SDS011;35679;38.732;-121.358;2022-09-29T05:50:07;1.67;;;1.58;;
49784;SDS011;35679;38.732;-121.358;2022-09-29T05:53:02;1.90;;;1.80;;
49784;SDS011;35679;38.732;-121.358;2022-09-29T05:55:51;2.22;;;1.95;;
49784;SDS011;35679;38.732;-121.358;2022-09-29T05:58:41;2.17;;;2.00;;
49784;SDS011;35679;38.732;-121.358;2022-09-29T06:01:31;1.63;;;1.60;;
49784;SDS011;35679;38.732;-121.358;2022-09-29T06:04:21;1.90;;;1.80;;
49784;SDS011;35679;38.732;-121.358;2022-09-29T06:07:11;2.17;;;2.05;;
49784;SDS011;35679;38.732;-121.358;2022-09-29T06:10:00;1.80;;;1.70;;
49784;SDS011;35679;38.732;-121.358;2022-09-29T06:12:50;1.70;;;1.65;;
49784;SDS011;35679;38.732;-121.358;2022-09-29T06:15:40;1.70;;;1.60;;
49784;SDS011;35679;38.732;-121.358;2022-09-29T06:18:48;1.65;;;1.55;;
49784;SDS011;35679;38.732;-121.358;2022-09-29T06:21:38;1.80;;;1.70;;
49784;SDS011;35679;38.732;-121.358;2022-09-29T06:24:28;1.92;;;1.77;;
49784;SDS011;35679;38.732;-121.358;2022-09-29T06:27:17;1.80;;;1.70;;
49784;SDS011;35679;38.732;-121.358;2022-09-29T06:30:07;1.92;;;1.70;;
49784;SDS011;35679;38.732;-121.358;2022-09-29T06:32:57;2.30;;;1.88;;
49784;SDS011;35679;38.732;-121.358;2022-09-29T06:35:47;1.85;;;1.75;;
49784;SDS011;35679;38.732;-121.358;2022-09-29T06:38:55;1.60;;;1.60;;
49784;SDS011;35679;38.732;-121.358;2022-09-29T06:41:45;1.50;;;1.50;;
49784;SDS011;35679;38.732;-121.358;2022-09-29T06:44:43;1.90;;;1.80;;
49784;SDS011;35679;38.732;-121.358;2022-09-29T06:47:33;1.85;;;1.70;;
49784;SDS011;35679;38.732;-121.358;2022-09-29T06:50:23;1.77;;;1.67;;
49784;SDS011;35679;38.732;-121.358;2022-09-29T06:53:13;1.83;;;1.73;;
49784;SDS011;35679;38.732;-121.358;2022-09-29T06:56:04;2.40;;;1.83;;
49784;SDS011;35679;38.732;-121.358;2022-09-29T06:58:54;2.00;;;1.90;;
49784;SDS011;35679;38.732;-121.358;2022-09-29T07:01:43;1.80;;;1.70;;
49784;SDS011;35679;38.732;-121.358;2022-09-29T07:04:38;1.90;;;1.80;;
49784;SDS011;35679;38.732;-121.358;2022-09-29T07:07:27;4.50;;;1.80;;
49784;SDS011;35679;38.732;-121.358;2022-09-29T07:10:17;2.40;;;1.60;;
49784;SDS011;35679;38.732;-121.358;2022-09-29T07:13:07;1.65;;;1.60;;
49784;SDS011;35679;38.732;-121.358;2022-09-29T07:16:18;1.70;;;1.60;;
49784;SDS011;35679;38.732;-121.358;2022-09-29T07:19:08;1.77;;;1.67;;
49784;SDS011;35679;38.732;-121.358;2022-09-29T07:21:58;1.95;;;1.75;;
49784;SDS011;35679;38.732;-121.358;2022-09-29T07:24:48;2.00;;;1.60;;
49784;SDS011;35679;38.732;-121.358;2022-09-29T07:30:30;1.70;;;1.60;;
49784;SDS011;35679;38.732;-121.358;2022-09-29T07:33:27;1.85;;;1.75;;
49784;SDS011;35679;38.732;-121.358;2022-09-29T07:36:25;1.60;;;1.60;;
49784;SDS011;35679;38.732;-121.358;2022-09-29T07:39:16;1.67;;;1.60;;
49784;SDS011;35679;38.732;-121.358;2022-09-29T07:42:09;1.70;;;1.60;;
49784;SDS011;35679;38.732;-121.358;2022-09-29T07:44:59;1.73;;;1.63;;
49784;SDS011;35679;38.732;-121.358;2022-09-29T07:47:49;1.75;;;1.65;;
49784;SDS011;35679;38.732;-121.358;2022-09-29T07:50:39;1.80;;;1.70;;
49784;SDS011;35679;38.732;-121.358;2022-09-29T07:53:29;1.60;;;1.50;;
49784;SDS011;35679;38.732;-121.358;2022-09-29T07:56:21;1.80;;;1.70;;
49784;SDS011;35679;38.732;-121.358;2022-09-29T07:59:11;2.38;;;1.50;;
49784;SDS011;35679;38.732;-121.358;2022-09-29T08:02:01;1.58;;;1.50;;
49784;SDS011;35679;38.732;-121.358;2022-09-29T08:04:52;1.60;;;1.50;;
49784;SDS011;35679;38.732;-121.358;2022-09-29T08:07:50;1.90;;;1.70;;
49784;SDS011;35679;38.732;-121.358;2022-09-29T08:10:40;1.70;;;1.63;;
49784;SDS011;35679;38.732;-121.358;2022-09-29T08:13:40;1.80;;;1.70;;
49784;SDS011;35679;38.732;-121.358;2022-09-29T08:16:30;1.88;;;1.70;;
49784;SDS011;35679;38.732;-121.358;2022-09-29T08:19:20;2.10;;;1.98;;
49784;SDS011;35679;38.732;-121.358;2022-09-29T08:22:10;2.35;;;1.50;;
49784;SDS011;35679;38.732;-121.358;2022-09-29T08:25:00;1.63;;;1.52;;
49784;SDS011;35679;38.732;-121.358;2022-09-29T08:27:49;1.70;;;1.60;;
49784;SDS011;35679;38.732;-121.358;2022-09-29T08:30:42;1.80;;;1.70;;
49784;SDS011;35679;38.732;-121.358;2022-09-29T08:33:31;1.67;;;1.58;;
49784;SDS011;35679;38.732;-121.358;2022-09-29T08:36:21;1.75;;;1.65;;
49784;SDS011;35679;38.732;-121.358;2022-09-29T08:39:11;2.15;;;1.70;;
49784;SDS011;35679;38.732;-121.358;2022-09-29T08:42:04;1.70;;;1.60;;
49784;SDS011;35679;38.732;-121.358;2022-09-29T08:45:06;1.55;;;1.50;;
49784;SDS011;35679;38.732;-121.358;2022-09-29T08:48:05;1.75;;;1.65;;
49784;SDS011;35679;38.732;-121.358;2022-09-29T08:51:20;1.40;;;1.40;;
49784;SDS011;35679;38.732;-121.358;2022-09-29T08:54:34;1.70;;;1.60;;
49784;SDS011;35679;38.732;-121.358;2022-09-29T08:57:32;1.73;;;1.63;;
49784;SDS011;35679;38.732;-121.358;2022-09-29T09:01:12;1.70;;;1.60;;
49784;SDS011;35679;38.732;-121.358;2022-09-29T09:07:03;1.58;;;1.50;;
49784;SDS011;35679;38.732;-121.358;2022-09-29T09:10:02;1.73;;;1.63;;
49784;SDS011;35679;38.732;-121.358;2022-09-29T09:16:27;1.88;;;1.77;;
49784;SDS011;35679;38.732;-121.358;2022-09-29T09:25:33;1.80;;;1.70;;
49784;SDS011;35679;38.732;-121.358;2022-09-29T09:28:58;2.78;;;1.60;;
49784;SDS011;35679;38.732;-121.358;2022-09-29T09:32:08;1.65;;;1.50;;
49784;SDS011;35679;38.732;-121.358;2022-09-29T09:38:24;2.00;;;1.83;;
49784;SDS011;35679;38.732;-121.358;2022-09-29T09:41:21;1.67;;;1.60;;
49784;SDS011;35679;38.732;-121.358;2022-09-29T09:44:15;1.70;;;1.70;;
49784;SDS011;35679;38.732;-121.358;2022-09-29T09:47:25;1.80;;;1.70;;
49784;SDS011;35679;38.732;-121.358;2022-09-29T09:50:21;1.55;;;1.50;;
49784;SDS011;35679;38.732;-121.358;2022-09-29T09:53:14;1.70;;;1.60;;
49784;SDS011;35679;38.732;-121.358;2022-09-29T09:56:16;1.67;;;1.60;;
49784;SDS011;35679;38.732;-121.358;2022-09-29T09:59:44;1.75;;;1.65;;
49784;SDS011;35679;38.732;-121.358;2022-09-29T10:05:45;1.70;;;1.60;;
49784;SDS011;35679;38.732;-121.358;2022-09-29T10:08:37;1.70;;;1.60;;
49784;SDS011;35679;38.732;-121.358;2022-09-29T10:11:30;1.83;;;1.70;;
49784;SDS011;35679;38.732;-121.358;2022-09-29T10:14:21;1.80;;;1.70;;
49784;SDS011;35679;38.732;-121.358;2022-09-29T10:17:14;1.77;;;1.67;;
49784;SDS011;35679;38.732;-121.358;2022-09-29T10:20:08;1.80;;;1.70;;
49784;SDS011;35679;38.732;-121.358;2022-09-29T10:23:14;1.80;;;1.70;;
49784;SDS011;35679;38.732;-121.358;2022-09-29T10:26:13;1.42;;;1.42;;
49784;SDS011;35679;38.732;-121.358;2022-09-29T10:29:16;1.80;;;1.70;;
49784;SDS011;35679;38.732;-121.358;2022-09-29T10:35:27;1.60;;;1.60;;
49784;SDS011;35679;38.732;-121.358;2022-09-29T10:38:23;1.90;;;1.80;;
49784;SDS011;35679;38.732;-121.358;2022-09-29T10:41:14;1.83;;;1.73;;
49784;SDS011;35679;38.732;-121.358;2022-09-29T10:47:13;1.75;;;1.63;;
49784;SDS011;35679;38.732;-121.358;2022-09-29T10:50:19;2.10;;;1.52;;
49784;SDS011;35679;38.732;-121.358;2022-09-29T10:53:24;1.90;;;1.80;;
49784;SDS011;35679;38.732;-121.358;2022-09-29T10:56:20;1.70;;;1.60;;
49784;SDS011;35679;38.732;-121.358;2022-09-29T10:59:12;1.70;;;1.70;;
49784;SDS011;35679;38.732;-121.358;2022-09-29T11:02:03;1.77;;;1.77;;
49784;SDS011;35679;38.732;-121.358;2022-09-29T11:04:53;1.90;;;1.80;;
49784;SDS011;35679;38.732;-121.358;2022-09-29T11:07:46;1.80;;;1.70;;
49784;SDS011;35679;38.732;-121.358;2022-09-29T11:10:38;1.77;;;1.73;;
49784;SDS011;35679;38.732;-121.358;2022-09-29T11:19:17;1.77;;;1.67;;
49784;SDS011;35679;38.732;-121.358;2022-09-29T11:22:41;1.70;;;1.60;;
49784;SDS011;35679;38.732;-121.358;2022-09-29T11:28:30;1.80;;;1.70;;
49784;SDS011;35679;38.732;-121.358;2022-09-29T11:53:45;1.67;;;1.58;;
49784;SDS011;35679;38.732;-121.358;2022-09-29T12:06:19;1.80;;;1.70;;
49784;SDS011;35679;38.732;-121.358;2022-09-29T12:09:33;1.85;;;1.67;;
49784;SDS011;35679;38.732;-121.358;2022-09-29T12:18:34;1.70;;;1.63;;
49784;SDS011;35679;38.732;-121.358;2022-09-29T12:21:32;1.73;;;1.63;;
49784;SDS011;35679;38.732;-121.358;2022-09-29T12:24:33;1.50;;;1.50;;
49784;SDS011;35679;38.732;-121.358;2022-09-29T12:27:43;2.35;;;1.60;;
49784;SDS011;35679;38.732;-121.358;2022-09-29T12:30:38;2.95;;;2.00;;
49784;SDS011;35679;38.732;-121.358;2022-09-29T12:33:44;1.83;;;1.73;;
49784;SDS011;35679;38.732;-121.358;2022-09-29T12:39:50;3.53;;;1.88;;
49784;SDS011;35679;38.732;-121.358;2022-09-29T12:43:11;2.10;;;1.90;;
49784;SDS011;35679;38.732;-121.358;2022-09-29T12:49:28;2.08;;;1.98;;
49784;SDS011;35679;38.732;-121.358;2022-09-29T12:52:47;2.15;;;2.05;;
49784;SDS011;35679;38.732;-121.358;2022-09-29T12:58:39;1.92;;;1.80;;
49784;SDS011;35679;38.732;-121.358;2022-09-29T13:01:33;2.60;;;1.98;;
49784;SDS011;35679;38.732;-121.358;2022-09-29T13:07:42;1.83;;;1.70;;
49784;SDS011;35679;38.732;-121.358;2022-09-29T13:26:41;1.98;;;1.88;;
49784;SDS011;35679;38.732;-121.358;2022-09-29T13:29:48;1.85;;;1.75;;
49784;SDS011;35679;38.732;-121.358;2022-09-29T13:32:43;2.10;;;2.00;;
49784;SDS011;35679;38.732;-121.358;2022-09-29T13:35:42;2.03;;;1.83;;
49784;SDS011;35679;38.732;-121.358;2022-09-29T13:38:35;2.00;;;1.90;;
49784;SDS011;35679;38.732;-121.358;2022-09-29T13:44:20;1.80;;;1.70;;
49784;SDS011;35679;38.732;-121.358;2022-09-29T13:47:31;2.05;;;1.95;;
49784;SDS011;35679;38.732;-121.358;2022-09-29T13:53:35;2.08;;;1.77;;
49784;SDS011;35679;38.732;-121.358;2022-09-29T13:56:25;1.77;;;1.67;;
49784;SDS011;35679;38.732;-121.358;2022-09-29T13:59:14;4.40;;;2.28;;
49784;SDS011;35679;38.732;-121.358;2022-09-29T14:08:20;2.78;;;1.80;;
49784;SDS011;35679;38.732;-121.358;2022-09-29T14:11:17;4.93;;;1.85;;
49784;SDS011;35679;38.732;-121.358;2022-09-29T14:14:22;2.88;;;1.75;;
49784;SDS011;35679;38.732;-121.358;2022-09-29T14:17:28;1.75;;;1.65;;
49784;SDS011;35679;38.732;-121.358;2022-09-29T14:20:24;2.58;;;1.85;;
49784;SDS011;35679;38.732;-121.358;2022-09-29T14:23:33;2.97;;;1.90;;
49784;SDS011;35679;38.732;-121.358;2022-09-29T14:26:51;2.00;;;1.90;;
49784;SDS011;35679;38.732;-121.358;2022-09-29T14:29:43;2.33;;;1.73;;
49784;SDS011;35679;38.732;-121.358;2022-09-29T14:32:39;2.03;;;1.92;;
49784;SDS011;35679;38.732;-121.358;2022-09-29T14:35:53;4.30;;;1.80;;
49784;SDS011;35679;38.732;-121.358;2022-09-29T14:38:48;2.30;;;2.10;;
49784;SDS011;35679;38.732;-121.358;2022-09-29T14:42:01;5.20;;;2.17;;
49784;SDS011;35679;38.732;-121.358;2022-09-29T14:44:51;5.72;;;1.70;;
49784;SDS011;35679;38.732;-121.358;2022-09-29T14:48:04;2.88;;;1.80;;
49784;SDS011;35679;38.732;-121.358;2022-09-29T14:51:26;3.10;;;1.80;;
49784;SDS011;35679;38.732;-121.358;2022-09-29T15:01:12;4.32;;;2.30;;
49784;SDS011;35679;38.732;-121.358;2022-09-29T15:04:15;2.10;;;2.00;;
49784;SDS011;35679;38.732;-121.358;2022-09-29T15:07:08;2.28;;;2.17;;
49784;SDS011;35679;38.732;-121.358;2022-09-29T15:10:01;4.60;;;2.38;;
49784;SDS011;35679;38.732;-121.358;2022-09-29T15:12:50;2.95;;;1.92;;
49784;SDS011;35679;38.732;-121.358;2022-09-29T15:16:04;2.63;;;2.08;;
49784;SDS011;35679;38.732;-121.358;2022-09-29T15:22:23;17.83;;;3.53;;
49784;SDS011;35679;38.732;-121.358;2022-09-29T15:25:20;10.38;;;2.47;;
49784;SDS011;35679;38.732;-121.358;2022-09-29T15:31:11;5.22;;;2.20;;
49784;SDS011;35679;38.732;-121.358;2022-09-29T15:34:08;2.65;;;2.30;;
49784;SDS011;35679;38.732;-121.358;2022-09-29T15:37:03;3.88;;;2.08;;
49784;SDS011;35679;38.732;-121.358;2022-09-29T15:39:53;4.47;;;2.20;;
49784;SDS011;35679;38.732;-121.358;2022-09-29T15:42:42;5.18;;;2.42;;
49784;SDS011;35679;38.732;-121.358;2022-09-29T15:45:34;7.32;;;2.25;;
49784;SDS011;35679;38.732;-121.358;2022-09-29T15:48:24;5.63;;;2.20;;
49784;SDS011;35679;38.732;-121.358;2022-09-29T15:51:17;4.80;;;2.40;;
49784;SDS011;35679;38.732;-121.358;2022-09-29T15:54:09;2.30;;;2.10;;
49784;SDS011;35679;38.732;-121.358;2022-09-29T15:57:01;4.07;;;2.10;;
49784;SDS011;35679;38.732;-121.358;2022-09-29T16:03:14;2.85;;;2.15;;
49784;SDS011;35679;38.732;-121.358;2022-09-29T16:06:27;2.42;;;2.17;;
49784;SDS011;35679;38.732;-121.358;2022-09-29T16:09:19;4.25;;;2.35;;
49784;SDS011;35679;38.732;-121.358;2022-09-29T16:12:11;3.08;;;2.15;;
49784;SDS011;35679;38.732;-121.358;2022-09-29T16:15:05;2.40;;;2.00;;
49784;SDS011;35679;38.732;-121.358;2022-09-29T16:18:09;2.40;;;1.90;;
49784;SDS011;35679;38.732;-121.358;2022-09-29T16:21:10;2.38;;;2.17;;
49784;SDS011;35679;38.732;-121.358;2022-09-29T16:24:12;2.35;;;2.05;;
49784;SDS011;35679;38.732;-121.358;2022-09-29T16:27:36;2.20;;;2.10;;
49784;SDS011;35679;38.732;-121.358;2022-09-29T16:30:35;3.05;;;2.13;;
49784;SDS011;35679;38.732;-121.358;2022-09-29T16:33:31;2.90;;;2.50;;
49784;SDS011;35679;38.732;-121.358;2022-09-29T16:36:23;2.65;;;2.22;;
49784;SDS011;35679;38.732;-121.358;2022-09-29T16:39:24;4.32;;;2.53;;
49784;SDS011;35679;38.732;-121.358;2022-09-29T16:42:17;2.15;;;2.05;;
49784;SDS011;35679;38.732;-121.358;2022-09-29T16:45:13;2.05;;;1.92;;
49784;SDS011;35679;38.732;-121.358;2022-09-29T16:48:07;3.97;;;2.33;;
49784;SDS011;35679;38.732;-121.358;2022-09-29T16:50:59;4.63;;;2.25;;
49784;SDS011;35679;38.732;-121.358;2022-09-29T16:54:10;2.53;;;2.10;;
49784;SDS011;35679;38.732;-121.358;2022-09-29T17:00:31;4.40;;;2.30;;
49784;SDS011;35679;38.732;-121.358;2022-09-29T17:03:21;2.30;;;2.10;;
49784;SDS011;35679;38.732;-121.358;2022-09-29T17:06:10;2.30;;;2.10;;
49784;SDS011;35679;38.732;-121.358;2022-09-29T17:09:01;3.25;;;2.13;;
49784;SDS011;35679;38.732;-121.358;2022-09-29T17:11:54;2.88;;;2.10;;
49784;SDS011;35679;38.732;-121.358;2022-09-29T17:14:43;2.25;;;2.10;;
49784;SDS011;35679;38.732;-121.358;2022-09-29T17:17:34;2.33;;;2.10;;
49784;SDS011;35679;38.732;-121.358;2022-09-29T17:20:23;4.32;;;2.08;;
49784;SDS011;35679;38.732;-121.358;2022-09-29T17:23:17;2.17;;;1.98;;
49784;SDS011;35679;38.732;-121.358;2022-09-29T17:26:20;2.45;;;2.25;;
49784;SDS011;35679;38.732;-121.358;2022-09-29T17:29:32;2.30;;;2.20;;
49784;SDS011;35679;38.732;-121.358;2022-09-29T17:32:23;2.22;;;2.10;;
49784;SDS011;35679;38.732;-121.358;2022-09-29T17:35:12;2.20;;;2.10;;
49784;SDS011;35679;38.732;-121.358;2022-09-29T17:38:02;2.47;;;2.10;;
49784;SDS011;35679;38.732;-121.358;2022-09-29T17:43:52;2.30;;;2.10;;
49784;SDS011;35679;38.732;-121.358;2022-09-29T17:46:41;2.45;;;2.25;;
49784;SDS011;35679;38.732;-121.358;2022-09-29T17:49:31;2.30;;;2.20;;
49784;SDS011;35679;38.732;-121.358;2022-09-29T17:52:23;2.10;;;2.00;;
49784;SDS011;35679;38.732;-121.358;2022-09-29T17:55:13;2.25;;;2.10;;
49784;SDS011;35679;38.732;-121.358;2022-09-29T17:58:03;2.10;;;2.00;;
49784;SDS011;35679;38.732;-121.358;2022-09-29T18:00:53;2.15;;;2.00;;
49784;SDS011;35679;38.732;-121.358;2022-09-29T18:03:47;2.20;;;1.98;;
49784;SDS011;35679;38.732;-121.358;2022-09-29T18:06:38;2.55;;;2.22;;
49784;SDS011;35679;38.732;-121.358;2022-09-29T18:09:29;2.35;;;2.15;;
49784;SDS011;35679;38.732;-121.358;2022-09-29T18:12:19;2.75;;;2.13;;
49784;SDS011;35679;38.732;-121.358;2022-09-29T18:15:09;2.47;;;2.28;;
49784;SDS011;35679;38.732;-121.358;2022-09-29T18:17:59;1.90;;;1.80;;
49784;SDS011;35679;38.732;-121.358;2022-09-29T18:20:50;2.20;;;2.00;;
49784;SDS011;35679;38.732;-121.358;2022-09-29T18:23:39;2.17;;;2.00;;
49784;SDS011;35679;38.732;-121.358;2022-09-29T18:26:29;2.15;;;2.05;;
49784;SDS011;35679;38.732;-121.358;2022-09-29T18:29:19;2.15;;;2.00;;
49784;SDS011;35679;38.732;-121.358;2022-09-29T18:32:09;2.33;;;2.10;;
49784;SDS011;35679;38.732;-121.358;2022-09-29T18:35:09;2.40;;;2.20;;
49784;SDS011;35679;38.732;-121.358;2022-09-29T18:38:04;2.08;;;1.88;;
49784;SDS011;35679;38.732;-121.358;2022-09-29T18:40:54;2.47;;;2.20;;
49784;SDS011;35679;38.732;-121.358;2022-09-29T18:43:47;2.40;;;2.20;;
49784;SDS011;35679;38.732;-121.358;2022-09-29T18:46:37;2.20;;;2.10;;
49784;SDS011;35679;38.732;-121.358;2022-09-29T18:49:26;2.35;;;1.80;;
49784;SDS011;35679;38.732;-121.358;2022-09-29T18:52:15;2.78;;;2.30;;
49784;SDS011;35679;38.732;-121.358;2022-09-29T18:55:06;2.08;;;1.98;;
49784;SDS011;35679;38.732;-121.358;2022-09-29T18:57:56;1.90;;;1.80;;
49784;SDS011;35679;38.732;-121.358;2022-09-29T19:00:48;2.30;;;2.10;;
49784;SDS011;35679;38.732;-121.358;2022-09-29T19:03:41;2.30;;;2.20;;
49784;SDS011;35679;38.732;-121.358;2022-09-29T19:06:30;4.22;;;2.08;;
49784;SDS011;35679;38.732;-121.358;2022-09-29T19:09:20;2.30;;;2.10;;
49784;SDS011;35679;38.732;-121.358;2022-09-29T19:12:09;2.40;;;2.20;;
49784;SDS011;35679;38.732;-121.358;2022-09-29T19:14:59;2.00;;;1.90;;
49784;SDS011;35679;38.732;-121.358;2022-09-29T19:17:48;2.10;;;1.90;;
49784;SDS011;35679;38.732;-121.358;2022-09-29T19:20:38;3.90;;;2.10;;
49784;SDS011;35679;38.732;-121.358;2022-09-29T19:23:28;2.35;;;2.20;;
49784;SDS011;35679;38.732;-121.358;2022-09-29T19:26:19;2.25;;;2.05;;
49784;SDS011;35679;38.732;-121.358;2022-09-29T19:29:09;2.10;;;1.90;;
49784;SDS011;35679;38.732;-121.358;2022-09-29T19:31:59;2.33;;;2.22;;
49784;SDS011;35679;38.732;-121.358;2022-09-29T19:34:49;2.67;;;2.10;;
49784;SDS011;35679;38.732;-121.358;2022-09-29T19:37:41;2.00;;;1.90;;